EGAC/BHD METAR and TAF weather

Enter ICAO airport designator
Station Type Date Time Source
EGAC METAR 2022/11/30 23:20 UTC NOAA

EGAC 302320Z AUTO 18006KT 9999 OVC013 10/10 Q1025


Station Type Date Time Source
EGAC Decoded METAR 2022/11/30 23:20 UTC NOAA

Belfast / Harbour, United Kingdom (EGAC) 54-36N 005-53W 0M
Nov 30, 2022 - 06:20 PM EST / 2022.11.30 2320 UTC
Wind: from the S (180 degrees) at 7 MPH (6 KT):0
Visibility: greater than 7 mile(s):0
Sky conditions: overcast
Temperature: 50 F (10 C)
Dew Point: 50 F (10 C)
Relative Humidity: 100%
Pressure (altimeter): 30.27 in. Hg (1025 hPa)
ob: EGAC 302320Z AUTO 18006KT 9999 OVC013 10/10 Q1025
cycle: 23

Station Type Date Time Source
EGAC TAF 2021/12/01 18:15 UTC NOAA

TAF
AMD TAF
AMD EGAC 010102Z 3018/0103 CNL

Example: see airport list